Time;durP1;ratioP1;P1;durP2;ratioP2;P2;SDS_P1;SDS_P2;PMS_P1;PMS_P2;Temp;Humidity;BMP_temperature;BMP_pressure;BME280_temperature;BME280_humidity;BME280_pressure;Samples;Min_cycle;Max_cycle;Signal;HPM_P1;HPM_P2
2023/12/25 00:00:32;;;;;;;3.03;0.50;;;;;;;10.19;100.00;99315.03;5088228;28;20472;-65
2023/12/25 00:02:58;;;;;;;3.03;0.40;;;;;;;10.14;100.00;99324.59;5086676;28;20336;-65
2023/12/25 00:05:23;;;;;;;5.30;0.40;;;;;;;10.15;100.00;99329.00;5086343;28;20038;-64
2023/12/25 00:07:48;;;;;;;2.13;0.33;;;;;;;10.14;100.00;99306.13;5086462;28;20032;-64
2023/12/25 00:10:14;;;;;;;5.73;0.50;;;;;;;10.13;100.00;99336.88;5086147;28;20040;-65
2023/12/25 00:12:39;;;;;;;1.47;0.30;;;;;;;10.14;100.00;99320.19;5089667;28;20028;-64
2023/12/25 00:15:05;;;;;;;5.10;0.50;;;;;;;10.14;100.00;99311.38;5086335;28;20286;-64
2023/12/25 00:17:31;;;;;;;2.70;0.50;;;;;;;10.11;100.00;99314.88;5086187;28;20058;-64
2023/12/25 00:19:56;;;;;;;1.70;0.30;;;;;;;10.09;100.00;99313.94;5086125;28;20496;-65
2023/12/25 00:22:22;;;;;;;2.63;0.40;;;;;;;10.06;100.00;99319.16;5086330;28;20077;-64
2023/12/25 00:24:47;;;;;;;3.20;0.80;;;;;;;10.05;100.00;99321.75;5085864;28;20095;-64
2023/12/25 00:27:13;;;;;;;1.65;0.30;;;;;;;10.02;100.00;99326.97;5085785;28;20044;-64
2023/12/25 00:29:38;;;;;;;3.93;0.50;;;;;;;9.98;100.00;99331.28;5085919;28;20047;-64
2023/12/25 00:32:04;;;;;;;3.37;0.40;;;;;;;10.00;100.00;99324.31;5084982;28;20036;-64
2023/12/25 00:34:30;;;;;;;6.28;0.75;;;;;;;10.04;100.00;99312.97;5085995;28;20043;-64
2023/12/25 00:36:55;;;;;;;3.87;0.50;;;;;;;10.06;100.00;99328.81;5085922;28;20404;-65
2023/12/25 00:39:20;;;;;;;5.17;0.50;;;;;;;10.10;100.00;99330.66;5078127;28;20086;-64
2023/12/25 00:41:46;;;;;;;5.27;0.80;;;;;;;10.11;100.00;99335.97;5072446;28;20029;-65
2023/12/25 00:44:11;;;;;;;2.63;0.50;;;;;;;10.13;100.00;99330.72;5071879;28;20033;-64
2023/12/25 00:46:37;;;;;;;8.10;0.80;;;;;;;10.16;100.00;99336.09;5072694;28;20025;-65
2023/12/25 00:49:02;;;;;;;4.40;0.40;;;;;;;10.19;100.00;99334.41;5072195;28;20423;-65
2023/12/25 00:51:27;;;;;;;3.07;0.80;;;;;;;10.20;100.00;99328.28;5072421;28;20584;-64
2023/12/25 00:53:54;;;;;;;5.70;0.60;;;;;;;10.22;100.00;99336.19;5071212;28;20453;-64
2023/12/25 00:56:19;;;;;;;2.27;0.40;;;;;;;10.20;100.00;99320.34;5070610;28;20074;-64
2023/12/25 00:58:44;;;;;;;2.90;0.40;;;;;;;10.23;100.00;99328.31;5070696;28;20032;-64
2023/12/25 01:01:10;;;;;;;2.75;0.50;;;;;;;10.26;100.00;99335.44;5074139;28;20107;-65
2023/12/25 01:03:35;;;;;;;3.83;0.50;;;;;;;10.29;100.00;99332.84;5071046;28;20040;-66
2023/12/25 01:06:01;;;;;;;3.43;0.33;;;;;;;10.30;100.00;99334.63;5071820;28;20041;-64
2023/12/25 01:08:26;;;;;;;2.45;0.40;;;;;;;10.30;100.00;99345.19;5071927;28;20028;-65
2023/12/25 01:10:52;;;;;;;3.57;1.00;;;;;;;10.31;100.00;99342.53;5071517;28;20123;-65
2023/12/25 01:13:17;;;;;;;3.80;0.57;;;;;;;10.31;100.00;99346.97;5070889;28;20029;-65
2023/12/25 01:15:43;;;;;;;7.40;1.15;;;;;;;10.31;100.00;99346.97;5071948;28;20043;-65
2023/12/25 01:18:09;;;;;;;2.60;0.50;;;;;;;10.31;100.00;99360.16;5071825;28;20115;-68
2023/12/25 01:20:34;;;;;;;3.50;0.60;;;;;;;10.31;100.00;99368.06;5070502;28;20048;-65
2023/12/25 01:22:59;;;;;;;4.87;0.73;;;;;;;10.30;100.00;99369.81;5070448;28;20173;-65
2023/12/25 01:25:25;;;;;;;3.93;0.50;;;;;;;10.29;100.00;99369.78;5071048;28;20370;-65
2023/12/25 01:27:50;;;;;;;5.77;0.73;;;;;;;10.29;100.00;99364.50;5070126;28;20037;-65
2023/12/25 01:30:16;;;;;;;2.97;0.30;;;;;;;10.27;100.00;99360.94;5070072;28;20033;-65
2023/12/25 01:32:41;;;;;;;3.27;0.70;;;;;;;10.27;100.00;99359.19;5072687;28;20055;-65
2023/12/25 01:35:07;;;;;;;5.47;0.50;;;;;;;10.28;100.00;99358.31;5071124;28;20032;-65
2023/12/25 01:37:32;;;;;;;2.10;0.40;;;;;;;10.28;100.00;99349.53;5072333;28;20024;-65
2023/12/25 01:39:57;;;;;;;4.00;0.57;;;;;;;10.26;100.00;99352.13;5072288;28;20170;-65
2023/12/25 01:42:23;;;;;;;4.88;0.63;;;;;;;10.25;100.00;99352.13;5071198;28;20040;-65
2023/12/25 01:44:49;;;;;;;3.57;0.60;;;;;;;10.23;100.00;99354.72;5070265;28;20025;-65
2023/12/25 01:47:17;;;;;;;4.90;1.00;;;;;;;10.25;100.00;99352.13;5071462;28;20119;-65
2023/12/25 01:49:43;;;;;;;2.97;0.60;;;;;;;10.25;100.00;99349.47;5071527;28;20028;-65
2023/12/25 01:52:09;;;;;;;3.45;0.73;;;;;;;10.27;100.00;99346.00;5070776;28;20086;-65
2023/12/25 01:54:37;;;;;;;5.30;0.80;;;;;;;10.26;100.00;99354.75;5062555;28;20035;-65
2023/12/25 01:57:03;;;;;;;6.43;1.00;;;;;;;10.27;100.00;99346.00;5071244;28;20029;-64
2023/12/25 01:59:30;;;;;;;4.20;0.65;;;;;;;10.28;100.00;99354.78;5072928;28;20547;-64
2023/12/25 02:01:57;;;;;;;3.77;0.53;;;;;;;10.32;100.00;99360.16;5069736;28;20111;-64
2023/12/25 02:04:25;;;;;;;4.50;0.60;;;;;;;10.41;100.00;99370.00;5070677;28;20037;-64
2023/12/25 02:06:51;;;;;;;7.60;0.88;;;;;;;10.52;100.00;99363.19;5070697;28;20115;-64
2023/12/25 02:09:17;;;;;;;3.65;0.82;;;;;;;10.55;100.00;99365.91;5070336;28;20488;-64
2023/12/25 02:11:43;;;;;;;4.25;0.60;;;;;;;10.59;100.00;99365.09;5071001;28;20025;-64
2023/12/25 02:14:10;;;;;;;6.57;0.90;;;;;;;10.64;100.00;99358.16;5069435;28;20060;-65
2023/12/25 02:16:37;;;;;;;5.00;0.70;;;;;;;10.73;100.00;99353.03;5069267;28;20029;-64
2023/12/25 02:19:07;;;;;;;7.70;0.90;;;;;;;10.79;100.00;99369.00;5069133;28;20082;-64
2023/12/25 02:21:32;;;;;;;4.10;0.77;;;;;;;10.91;100.00;99372.69;5070179;28;20033;-64
2023/12/25 02:23:59;;;;;;;4.97;0.60;;;;;;;10.97;100.00;99368.41;5070497;28;20043;-64
2023/12/25 02:26:25;;;;;;;6.85;0.95;;;;;;;11.05;100.00;99364.16;5070407;28;20028;-65
2023/12/25 02:28:51;;;;;;;3.53;0.60;;;;;;;11.09;100.00;99358.06;5068552;28;20035;-64
2023/12/25 02:31:17;;;;;;;4.87;0.90;;;;;;;11.12;100.00;99368.69;5070399;28;20036;-64
2023/12/25 02:33:42;;;;;;;4.32;0.88;;;;;;;11.14;100.00;99363.44;5068966;28;20040;-64
2023/12/25 02:36:08;;;;;;;3.72;0.65;;;;;;;11.13;100.00;99374.84;5068505;28;20679;-65
2023/12/25 02:38:34;;;;;;;6.30;0.80;;;;;;;11.10;100.00;99366.88;5068714;28;20084;-65
2023/12/25 02:41:00;;;;;;;4.53;0.77;;;;;;;11.08;100.00;99385.34;5070378;28;20605;-64
2023/12/25 02:45:54;;;;;;;4.55;0.98;;;;;;;11.03;100.00;99378.19;5066775;28;20369;-63
2023/12/25 02:48:20;;;;;;;4.23;0.63;;;;;;;10.99;100.00;99369.34;5067010;28;20032;-64
2023/12/25 02:50:45;;;;;;;7.07;0.95;;;;;;;10.99;100.00;99376.38;5049851;28;20033;-63
2023/12/25 02:53:11;;;;;;;3.20;0.70;;;;;;;10.97;100.00;99378.97;5047069;28;20041;-63
2023/12/25 02:55:37;;;;;;;8.60;0.90;;;;;;;10.96;100.00;99392.16;5046742;28;20045;-64
2023/12/25 02:58:03;;;;;;;4.75;0.50;;;;;;;10.94;100.00;99384.22;5047155;28;20068;-63
2023/12/25 03:00:28;;;;;;;5.17;0.60;;;;;;;10.94;100.00;99378.94;5048795;28;20425;-63
2023/12/25 03:02:54;;;;;;;4.53;0.60;;;;;;;10.91;100.00;99378.88;5046469;28;20119;-63
2023/12/25 03:05:19;;;;;;;3.67;0.68;;;;;;;10.91;100.00;99378.88;5044792;28;20505;-63
2023/12/25 03:07:44;;;;;;;5.03;0.83;;;;;;;10.91;100.00;99386.78;5046396;28;20121;-64
2023/12/25 03:10:10;;;;;;;3.47;0.70;;;;;;;10.90;100.00;99371.84;5046550;28;20934;-64
2023/12/25 03:12:35;;;;;;;4.37;0.73;;;;;;;10.88;100.00;99368.25;5046663;28;20037;-64
2023/12/25 03:17:33;;;;;;;4.68;0.70;;;;;;;10.88;100.00;99378.81;5105308;27;20416;-66
2023/12/25 03:19:59;;;;;;;6.03;1.00;;;;;;;10.87;100.00;99374.41;5096601;28;20028;-66
2023/12/25 03:22:24;;;;;;;4.93;0.70;;;;;;;10.88;100.00;99388.50;5087208;28;20404;-66
2023/12/25 03:24:50;;;;;;;5.57;1.03;;;;;;;10.88;100.00;99405.25;5085651;28;20028;-66
2023/12/25 03:27:15;;;;;;;4.00;1.07;;;;;;;10.89;100.00;99390.28;5087006;28;20168;-63
2023/12/25 03:29:40;;;;;;;6.13;0.70;;;;;;;10.90;100.00;99406.16;5086990;28;20115;-63
2023/12/25 03:32:06;;;;;;;4.30;0.80;;;;;;;10.91;100.00;99414.94;5087275;28;20043;-64
2023/12/25 03:34:47;;;;;;;4.00;0.80;;;;;;;10.90;100.00;99406.16;5086541;28;20069;-64
2023/12/25 03:37:13;;;;;;;2.93;0.60;;;;;;;10.92;100.00;99417.63;5068566;28;20111;-66
2023/12/25 03:39:38;;;;;;;4.53;0.63;;;;;;;10.74;100.00;99386.50;5086715;28;20115;-66
2023/12/25 03:42:05;;;;;;;2.22;0.40;;;;;;;10.55;100.00;99410.78;5106749;28;20057;-66
2023/12/25 03:44:30;;;;;;;5.87;1.00;;;;;;;10.42;100.00;99407.84;5089541;28;20075;-66
2023/12/25 03:46:56;;;;;;;3.37;0.70;;;;;;;10.33;100.00;99404.16;5086673;28;20021;-66
2023/12/25 03:49:21;;;;;;;4.33;0.70;;;;;;;10.28;100.00;99397.91;5086477;28;20108;-65
2023/12/25 03:51:46;;;;;;;6.60;0.90;;;;;;;10.28;100.00;99399.66;5085266;28;20283;-66
2023/12/25 03:54:12;;;;;;;7.73;0.90;;;;;;;10.24;100.00;99393.44;5086644;28;20128;-65
2023/12/25 03:56:37;;;;;;;5.60;0.80;;;;;;;10.22;100.00;99397.78;5094552;28;20107;-65
2023/12/25 03:59:03;;;;;;;3.80;0.77;;;;;;;10.25;100.00;99404.88;5087588;28;20044;-65
2023/12/25 04:01:28;;;;;;;5.93;1.00;;;;;;;10.29;100.00;99402.34;5085950;28;20428;-65
2023/12/25 04:03:53;;;;;;;6.40;0.70;;;;;;;10.30;100.00;99400.59;5085521;28;20055;-65
2023/12/25 04:06:24;;;;;;;5.57;1.07;;;;;;;10.35;100.00;99391.91;5085984;28;20217;-65
2023/12/25 04:08:49;;;;;;;6.18;0.88;;;;;;;10.37;100.00;99391.91;5086048;28;20093;-65
2023/12/25 04:11:21;;;;;;;4.90;0.80;;;;;;;10.39;100.00;99412.22;5084968;28;20543;-65
2023/12/25 04:13:48;;;;;;;2.95;0.60;;;;;;;10.44;100.00;99392.94;5085727;28;20318;-66
2023/12/25 04:16:26;;;;;;;1.88;0.40;;;;;;;10.45;100.00;99386.81;5085351;28;20040;-65
2023/12/25 04:18:53;;;;;;;3.42;0.70;;;;;;;10.45;100.00;99381.53;5085210;28;20047;-65
2023/12/25 04:21:22;;;;;;;2.87;0.53;;;;;;;10.45;100.00;99381.53;5084440;28;20028;-64
2023/12/25 04:23:48;;;;;;;3.42;0.60;;;;;;;10.42;100.00;99379.69;5086076;28;20025;-65
2023/12/25 04:26:14;;;;;;;3.67;0.57;;;;;;;10.42;100.00;99379.69;5086162;28;20036;-65
2023/12/25 04:28:39;;;;;;;4.40;0.80;;;;;;;10.44;100.00;99388.56;5080362;28;20044;-65
2023/12/25 04:31:05;;;;;;;4.45;0.70;;;;;;;10.50;100.00;99393.06;5071649;28;20043;-65
2023/12/25 04:33:30;;;;;;;4.70;0.70;;;;;;;10.55;100.00;99389.66;5072521;28;20465;-64
2023/12/25 04:35:56;;;;;;;4.93;0.90;;;;;;;10.60;100.00;99380.09;5070785;28;20104;-64
2023/12/25 04:38:21;;;;;;;3.03;0.50;;;;;;;10.63;100.00;99392.44;5070937;28;20120;-64
2023/12/25 04:40:49;;;;;;;3.53;0.70;;;;;;;10.71;100.00;99404.03;5070732;28;20035;-65
2023/12/25 04:43:15;;;;;;;3.15;0.60;;;;;;;10.80;100.00;99391.00;5070918;28;20544;-65
2023/12/25 04:45:41;;;;;;;4.53;0.87;;;;;;;10.80;100.00;99386.59;5070848;28;20119;-64
2023/12/25 04:48:06;;;;;;;5.10;0.80;;;;;;;10.86;100.00;99369.09;5071952;28;20120;-64
2023/12/25 04:50:33;;;;;;;4.00;0.77;;;;;;;10.88;100.00;99377.94;5071900;28;20286;-64
2023/12/25 04:52:59;;;;;;;11.77;1.02;;;;;;;10.88;100.00;99372.66;5070896;28;20084;-64
2023/12/25 04:55:24;;;;;;;5.43;0.60;;;;;;;10.87;100.00;99384.06;5071722;28;20040;-64
2023/12/25 04:57:49;;;;;;;4.40;0.90;;;;;;;10.85;100.00;99377.91;5071817;28;20326;-65
2023/12/25 05:00:15;;;;;;;3.95;0.68;;;;;;;10.85;100.00;99380.53;5072567;28;20099;-64
2023/12/25 05:02:40;;;;;;;3.03;0.50;;;;;;;10.78;100.00;99387.44;5072117;28;20029;-64
2023/12/25 05:05:06;;;;;;;5.93;0.77;;;;;;;10.76;100.00;99379.47;5071436;28;20119;-65
2023/12/25 05:07:31;;;;;;;3.13;0.60;;;;;;;10.76;100.00;99379.47;5071948;28;20027;-64
2023/12/25 05:09:57;;;;;;;5.15;0.90;;;;;;;10.79;100.00;99386.59;5070370;28;20035;-64
2023/12/25 05:12:22;;;;;;;5.43;0.70;;;;;;;10.76;100.00;99374.19;5071453;28;20033;-65
2023/12/25 05:14:47;;;;;;;3.50;0.70;;;;;;;10.74;100.00;99385.63;5069940;28;20111;-64
2023/12/25 05:17:13;;;;;;;4.07;0.90;;;;;;;10.77;100.00;99383.91;5070095;28;20025;-65
2023/12/25 05:19:38;;;;;;;9.23;1.10;;;;;;;10.82;100.00;99386.63;5071384;28;20032;-64
2023/12/25 05:22:05;;;;;;;3.58;0.60;;;;;;;10.86;100.00;99387.56;5070557;28;20025;-64
2023/12/25 05:24:31;;;;;;;6.07;0.70;;;;;;;10.91;100.00;99388.53;5071229;28;20505;-64
2023/12/25 05:26:56;;;;;;;4.47;0.68;;;;;;;10.98;100.00;99396.63;5071168;28;20069;-64
2023/12/25 05:29:22;;;;;;;5.03;1.10;;;;;;;11.02;100.00;99379.06;5071210;28;20037;-64
2023/12/25 05:31:47;;;;;;;3.27;0.53;;;;;;;11.08;100.00;99397.66;5071541;28;20496;-65
2023/12/25 05:34:12;;;;;;;4.57;0.77;;;;;;;11.15;100.00;99400.44;5071000;28;20037;-64
2023/12/25 05:36:38;;;;;;;5.28;0.60;;;;;;;11.14;100.00;99403.06;5071142;28;20473;-64
2023/12/25 05:39:03;;;;;;;6.13;0.80;;;;;;;11.12;100.00;99397.75;5069930;28;20040;-64
2023/12/25 05:41:29;;;;;;;4.67;0.90;;;;;;;11.12;100.00;99399.50;5070735;28;20044;-65
2023/12/25 05:43:54;;;;;;;4.53;0.80;;;;;;;11.10;100.00;99407.38;5071163;28;20484;-64
2023/12/25 05:46:19;;;;;;;4.13;0.77;;;;;;;11.13;100.00;99401.28;5070556;28;20047;-64
2023/12/25 05:48:45;;;;;;;7.30;0.90;;;;;;;11.10;100.00;99407.38;5070436;28;20036;-64
2023/12/25 05:53:29;;;;;;;5.70;0.63;;;;;;;11.10;100.00;99411.81;5107366;27;20355;-63
2023/12/25 05:55:54;;;;;;;3.00;0.60;;;;;;;11.07;100.00;99403.81;5099999;28;20036;-63
2023/12/25 05:58:20;;;;;;;3.90;0.70;;;;;;;11.07;100.00;99411.72;5106621;28;20063;-63
2023/12/25 06:03:16;;;;;;;3.97;0.50;;;;;;;11.12;100.00;99402.13;5102110;27;20371;-64
2023/12/25 06:05:41;;;;;;;3.73;0.60;;;;;;;11.15;99.53;99415.41;5107176;28;20103;-63
2023/12/25 06:08:07;;;;;;;3.45;0.90;;;;;;;11.21;98.44;99411.09;5107257;28;20170;-64
2023/12/25 06:10:32;;;;;;;3.77;0.57;;;;;;;11.21;97.53;99400.53;5091672;28;20074;-66
2023/12/25 06:12:58;;;;;;;5.43;0.77;;;;;;;11.22;97.50;99412.91;5086815;28;20036;-65
2023/12/25 06:15:23;;;;;;;3.27;0.67;;;;;;;11.30;96.53;99418.28;5086602;28;20093;-65
2023/12/25 06:17:48;;;;;;;8.03;1.63;;;;;;;11.33;95.37;99415.72;5086880;28;20119;-65
2023/12/25 06:20:14;;;;;;;6.18;0.82;;;;;;;11.38;95.00;99415.78;5086931;28;20044;-65
2023/12/25 06:22:39;;;;;;;8.73;0.83;;;;;;;11.37;94.13;99417.53;5094740;28;20043;-65
2023/12/25 06:25:05;;;;;;;4.33;0.67;;;;;;;11.38;93.96;99419.34;5086313;28;20508;-65
2023/12/25 06:27:30;;;;;;;5.43;0.70;;;;;;;11.41;92.50;99424.66;5094854;28;20087;-65
2023/12/25 06:29:56;;;;;;;7.47;1.10;;;;;;;11.41;92.25;99427.31;5086295;28;20207;-65
2023/12/25 06:32:21;;;;;;;5.37;0.83;;;;;;;11.38;92.70;99439.59;5086758;28;20107;-65
2023/12/25 06:34:46;;;;;;;3.80;1.00;;;;;;;11.40;92.13;99433.44;5086019;28;20040;-64
2023/12/25 06:37:12;;;;;;;6.57;0.80;;;;;;;11.51;89.56;99442.44;5086313;28;20111;-63
2023/12/25 06:39:37;;;;;;;3.47;0.57;;;;;;;11.55;88.30;99449.56;5086453;28;20032;-63
2023/12/25 06:42:03;;;;;;;4.13;0.60;;;;;;;11.55;88.20;99441.63;5086369;28;20437;-64
2023/12/25 06:44:28;;;;;;;6.17;0.73;;;;;;;11.55;87.93;99452.22;5086052;28;20250;-65
2023/12/25 06:46:53;;;;;;;4.03;0.67;;;;;;;11.58;86.91;99461.97;5086139;28;20043;-64
2023/12/25 06:49:19;;;;;;;5.13;1.57;;;;;;;11.56;86.64;99464.56;5085767;28;20139;-64
2023/12/25 06:51:45;;;;;;;4.13;0.90;;;;;;;11.56;86.15;99464.56;5088077;28;20297;-65
2023/12/25 06:54:11;;;;;;;3.63;0.65;;;;;;;11.57;85.42;99482.22;5091864;28;20044;-65
2023/12/25 06:56:37;;;;;;;4.00;0.70;;;;;;;11.57;85.52;99495.44;5086101;28;20020;-62
2023/12/25 06:59:02;;;;;;;7.72;0.60;;;;;;;11.56;85.27;99503.34;5086683;28;20499;-63
2023/12/25 07:03:42;;;;;;;4.13;0.70;;;;;;;11.56;84.16;99503.34;5057482;28;20769;-61
2023/12/25 07:06:08;;;;;;;4.03;0.70;;;;;;;11.56;83.59;99501.59;5065476;28;20112;-62
2023/12/25 07:08:34;;;;;;;8.40;0.80;;;;;;;11.57;83.39;99489.25;5066446;28;20021;-63
2023/12/25 07:10:59;;;;;;;5.40;0.80;;;;;;;11.56;82.77;99490.13;5047537;28;20511;-62
2023/12/25 07:13:24;;;;;;;4.72;0.65;;;;;;;11.60;81.70;99500.78;5046536;28;20037;-62
2023/12/25 07:15:50;;;;;;;3.83;0.67;;;;;;;11.62;80.99;99495.50;5046348;28;20444;-61
2023/12/25 07:18:15;;;;;;;9.20;0.83;;;;;;;11.62;80.39;99504.34;5046128;28;20108;-61
2023/12/25 07:20:41;;;;;;;4.87;0.80;;;;;;;11.62;80.73;99511.38;5046412;28;20029;-61
2023/12/25 07:23:06;;;;;;;4.72;0.90;;;;;;;11.75;82.35;99528.38;5046682;28;20048;-63
2023/12/25 07:25:31;;;;;;;4.60;0.63;;;;;;;11.74;82.96;99524.88;5046098;28;20497;-62
2023/12/25 07:27:57;;;;;;;4.97;0.73;;;;;;;11.66;82.70;99526.44;5046294;28;20116;-62
2023/12/25 07:30:22;;;;;;;5.50;0.80;;;;;;;11.58;82.74;99514.84;5046334;28;20421;-62
2023/12/25 07:32:48;;;;;;;3.50;0.43;;;;;;;11.48;83.63;99540.25;5046496;28;20036;-62
2023/12/25 07:35:13;;;;;;;5.32;0.90;;;;;;;11.38;84.52;99538.28;5046343;28;20037;-65
2023/12/25 07:37:39;;;;;;;3.73;1.23;;;;;;;11.34;85.48;99549.66;5046500;28;20120;-63
2023/12/25 07:44:47;;;;;;;3.90;0.52;;;;;;;11.20;86.49;99545.84;5107058;27;20390;-67
2023/12/25 07:47:13;;;;;;;4.70;0.60;;;;;;;11.14;87.03;99557.22;5106113;28;20527;-65
2023/12/25 07:49:38;;;;;;;4.28;0.70;;;;;;;11.06;88.00;99565.81;5099156;28;20062;-62
2023/12/25 07:52:04;;;;;;;3.50;0.90;;;;;;;11.03;88.90;99563.13;5086902;28;20140;-62
2023/12/25 07:54:31;;;;;;;3.17;0.55;;;;;;;10.99;89.02;99582.44;5080349;28;20036;-62
2023/12/25 07:56:56;;;;;;;4.80;0.70;;;;;;;10.99;89.35;99582.44;5078711;28;20411;-62
2023/12/25 07:59:21;;;;;;;8.27;0.87;;;;;;;10.94;89.38;99584.09;5088911;28;20102;-63
2023/12/25 08:01:47;;;;;;;2.60;0.50;;;;;;;10.92;89.23;99594.63;5086710;28;20403;-62
2023/12/25 08:04:12;;;;;;;8.20;1.43;;;;;;;10.96;88.32;99598.19;5086319;28;20041;-65
2023/12/25 08:06:37;;;;;;;4.50;0.53;;;;;;;10.96;88.06;99614.06;5086660;28;20123;-64
2023/12/25 08:09:03;;;;;;;5.40;1.07;;;;;;;10.96;87.60;99619.34;5086582;28;20144;-63
2023/12/25 08:11:28;;;;;;;4.93;1.02;;;;;;;10.94;87.58;99610.50;5086365;28;20089;-64
2023/12/25 08:13:53;;;;;;;4.37;0.73;;;;;;;10.97;87.53;99636.97;5086952;28;20105;-63
2023/12/25 08:16:19;;;;;;;4.50;0.60;;;;;;;11.02;86.52;99619.47;5086379;28;20143;-63
2023/12/25 08:18:44;;;;;;;3.43;0.67;;;;;;;11.03;86.05;99638.00;5086169;28;20028;-63
2023/12/25 08:21:11;;;;;;;3.77;0.60;;;;;;;11.02;86.10;99635.31;5095011;28;20560;-64
2023/12/25 08:23:36;;;;;;;4.13;0.50;;;;;;;11.04;86.10;99639.81;5086374;28;20298;-63
2023/12/25 08:26:01;;;;;;;3.10;0.60;;;;;;;11.05;86.21;99645.97;5085953;28;20547;-63
2023/12/25 08:28:27;;;;;;;4.07;0.53;;;;;;;11.07;85.95;99655.69;5086008;28;20290;-63
2023/12/25 08:30:52;;;;;;;4.00;0.67;;;;;;;11.09;85.87;99648.72;5086590;28;20042;-65
2023/12/25 08:33:18;;;;;;;3.60;0.60;;;;;;;11.10;85.52;99657.53;5086434;28;20446;-63
2023/12/25 08:35:43;;;;;;;3.25;0.55;;;;;;;11.11;85.22;99654.00;5086093;28;20036;-64
2023/12/25 08:38:08;;;;;;;5.70;0.73;;;;;;;11.13;85.02;99655.84;5085649;28;20222;-64
2023/12/25 08:40:34;;;;;;;7.70;1.17;;;;;;;11.13;85.04;99660.22;5086166;28;20020;-64
2023/12/25 08:43:00;;;;;;;4.23;0.80;;;;;;;11.13;85.20;99660.22;5085892;28;20142;-64
2023/12/25 08:45:25;;;;;;;4.10;0.50;;;;;;;11.15;85.07;99663.81;5085467;28;20089;-63
2023/12/25 08:47:52;;;;;;;3.23;0.40;;;;;;;11.19;85.09;99676.22;5085838;28;20127;-63
2023/12/25 08:50:18;;;;;;;3.17;0.45;;;;;;;11.21;84.87;99675.38;5085846;28;20044;-63
2023/12/25 08:52:43;;;;;;;7.03;0.50;;;;;;;11.24;84.73;99678.13;5086052;28;20075;-64
2023/12/25 08:55:09;;;;;;;5.07;0.73;;;;;;;11.25;84.44;99677.22;5077851;28;20115;-63
2023/12/25 08:57:35;;;;;;;6.17;0.70;;;;;;;11.29;84.35;99683.50;5072090;28;20064;-62
2023/12/25 09:00:04;;;;;;;5.45;0.93;;;;;;;11.30;84.47;99679.09;5074378;28;20111;-63
2023/12/25 09:02:29;;;;;;;5.20;0.60;;;;;;;11.31;84.25;99684.41;5072149;28;20404;-63
2023/12/25 09:04:55;;;;;;;4.33;0.53;;;;;;;11.33;83.95;99687.97;5071891;28;20040;-63
2023/12/25 09:07:20;;;;;;;3.30;0.53;;;;;;;11.37;83.98;99696.84;5071891;28;20032;-63
2023/12/25 09:09:45;;;;;;;7.97;0.80;;;;;;;11.37;83.76;99697.75;5071846;28;20454;-61
2023/12/25 09:12:11;;;;;;;3.83;0.70;;;;;;;11.37;83.98;99703.03;5072299;28;20047;-62
2023/12/25 09:14:36;;;;;;;6.47;0.70;;;;;;;11.37;84.06;99710.06;5070381;28;20441;-61
2023/12/25 09:17:02;;;;;;;2.83;0.50;;;;;;;11.37;84.26;99716.25;5064258;28;20069;-61
2023/12/25 09:19:27;;;;;;;7.10;0.70;;;;;;;11.39;84.42;99714.56;5063498;28;20037;-63
2023/12/25 09:21:52;;;;;;;2.80;0.47;;;;;;;11.43;83.91;99708.47;5067137;28;20456;-63
2023/12/25 09:24:18;;;;;;;5.63;0.70;;;;;;;11.45;83.48;99711.13;5086404;28;20043;-61
2023/12/25 09:26:43;;;;;;;5.57;0.70;;;;;;;11.45;83.61;99711.13;5082990;28;20429;-62
2023/12/25 09:29:11;;;;;;;3.17;0.60;;;;;;;11.48;83.70;99714.72;5079261;28;20036;-62
2023/12/25 09:31:36;;;;;;;4.95;1.10;;;;;;;11.48;83.83;99708.56;5070202;28;20627;-62
2023/12/25 09:34:02;;;;;;;4.17;0.60;;;;;;;11.48;83.98;99711.19;5062994;28;20055;-59
2023/12/25 09:36:29;;;;;;;4.27;0.50;;;;;;;11.51;83.75;99708.59;5069598;28;20032;-62
2023/12/25 09:38:54;;;;;;;3.90;0.70;;;;;;;11.54;83.15;99706.94;5069393;28;20119;-63
2023/12/25 09:41:21;;;;;;;5.57;0.77;;;;;;;11.58;83.28;99724.66;5071403;28;20082;-64
2023/12/25 09:43:47;;;;;;;6.00;1.00;;;;;;;11.64;82.90;99718.59;5070146;28;20163;-68
2023/12/25 09:46:14;;;;;;;5.03;0.50;;;;;;;11.70;82.91;99714.28;5072027;28;20513;-63
2023/12/25 09:48:40;;;;;;;5.03;0.73;;;;;;;11.72;81.91;99706.41;5070782;28;20186;-64
2023/12/25 09:51:07;;;;;;;5.30;0.73;;;;;;;11.75;81.51;99711.78;5071182;28;20036;-66
2023/12/25 09:53:32;;;;;;;6.85;1.00;;;;;;;11.71;81.50;99712.53;5070519;28;20322;-65
2023/12/25 09:55:59;;;;;;;5.35;1.00;;;;;;;11.72;80.81;99701.09;5070962;28;20029;-63
2023/12/25 09:58:26;;;;;;;2.92;0.60;;;;;;;11.85;79.57;99708.44;5070492;28;20416;-65
2023/12/25 10:00:54;;;;;;;3.77;0.80;;;;;;;12.00;79.00;99718.44;5073288;28;20089;-65
2023/12/25 10:03:20;;;;;;;7.13;0.90;;;;;;;12.14;78.72;99731.94;5070840;28;20081;-70
2023/12/25 10:05:46;;;;;;;8.18;0.60;;;;;;;12.24;78.00;99728.56;5070531;28;20544;-76
2023/12/25 10:08:11;;;;;;;5.43;0.60;;;;;;;12.24;77.76;99734.75;5070391;28;20162;-69
2023/12/25 10:10:36;;;;;;;6.57;0.90;;;;;;;12.20;77.96;99729.38;5070417;28;20044;-68
2023/12/25 10:13:02;;;;;;;4.43;0.67;;;;;;;12.14;78.44;99732.81;5071306;28;20471;-67
2023/12/25 10:15:27;;;;;;;4.40;0.73;;;;;;;12.05;78.32;99736.19;5070538;28;20286;-71
2023/12/25 10:18:06;;;;;;;2.67;0.60;;;;;;;11.96;78.66;99717.50;5072289;28;20119;-67
2023/12/25 10:20:31;;;;;;;3.38;0.50;;;;;;;11.91;78.58;99735.03;5070442;28;20040;-73
2023/12/25 10:22:57;;;;;;;3.83;0.70;;;;;;;11.90;78.29;99735.00;5070500;28;20451;-66
2023/12/25 10:25:28;;;;;;;2.63;0.55;;;;;;;11.88;77.91;99726.16;5069976;28;20039;-65
2023/12/25 10:27:54;;;;;;;4.05;0.60;;;;;;;11.88;77.32;99755.25;5070594;28;20048;-66
2023/12/25 10:30:21;;;;;;;6.00;0.70;;;;;;;11.91;77.19;99750.00;5071234;28;20032;-66
2023/12/25 10:32:47;;;;;;;5.70;0.80;;;;;;;11.94;77.19;99743.00;5071028;28;20040;-68
2023/12/25 10:35:14;;;;;;;4.43;0.60;;;;;;;11.93;76.63;99757.13;5069900;28;20041;-68
2023/12/25 10:37:41;;;;;;;4.22;0.82;;;;;;;11.91;76.61;99765.88;5070244;28;20039;-66
2023/12/25 10:40:27;;;;;;;5.35;0.70;;;;;;;11.88;76.39;99777.31;5069374;28;20504;-65
2023/12/25 10:42:56;;;;;;;3.03;0.60;;;;;;;11.90;76.50;99783.50;5070155;28;20401;-65
2023/12/25 10:45:23;;;;;;;5.03;0.68;;;;;;;11.93;76.46;99780.06;5069609;28;20408;-67
2023/12/25 10:47:53;;;;;;;6.65;0.88;;;;;;;11.95;76.28;99784.50;5070413;28;20479;-67
2023/12/25 10:50:26;;;;;;;3.50;0.60;;;;;;;11.99;76.52;99780.16;5078078;28;20032;-67
2023/12/25 10:52:53;;;;;;;3.85;0.70;;;;;;;12.09;76.36;99790.94;5070494;28;20047;-65
2023/12/25 10:55:27;;;;;;;5.80;0.80;;;;;;;12.17;76.04;99771.69;5070205;28;20090;-67
2023/12/25 10:57:53;;;;;;;3.10;0.93;;;;;;;12.15;75.40;99769.00;5068832;28;20170;-66
2023/12/25 11:00:20;;;;;;;7.30;1.00;;;;;;;12.17;75.11;99769.94;5072221;28;20539;-66
2023/12/25 11:02:51;;;;;;;3.97;0.87;;;;;;;12.23;74.95;99785.94;5067817;28;20518;-68
2023/12/25 11:05:17;;;;;;;4.85;0.77;;;;;;;12.31;74.38;99776.38;5068733;28;20037;-68
2023/12/25 11:07:42;;;;;;;5.57;0.77;;;;;;;12.45;73.63;99780.16;5073571;28;20043;-66
2023/12/25 11:10:11;;;;;;;3.30;0.53;;;;;;;12.59;73.77;99779.50;5073924;28;20037;-66
2023/12/25 11:12:37;;;;;;;5.25;0.80;;;;;;;12.62;72.94;99768.97;5069256;28;20040;-67
2023/12/25 11:15:07;;;;;;;7.93;1.02;;;;;;;12.52;73.18;99778.53;5069629;28;20404;-65
2023/12/25 11:17:34;;;;;;;5.10;0.68;;;;;;;12.38;72.62;99786.19;5072420;28;20047;-66
2023/12/25 11:20:03;;;;;;;5.25;0.73;;;;;;;12.30;72.81;99787.81;5075243;28;20043;-65
2023/12/25 11:22:30;;;;;;;5.23;0.90;;;;;;;12.30;72.48;99787.81;5069231;28;20044;-66
2023/12/25 11:24:56;;;;;;;3.60;0.50;;;;;;;12.35;72.39;99785.25;5068666;28;20059;-64
2023/12/25 11:27:22;;;;;;;5.72;0.93;;;;;;;12.39;72.24;99795.03;5070031;28;20032;-64
2023/12/25 11:29:48;;;;;;;5.88;0.80;;;;;;;12.45;72.47;99798.69;5070565;28;20090;-64
2023/12/25 11:32:17;;;;;;;7.20;0.50;;;;;;;12.47;72.03;99796.09;5070568;28;20032;-63
2023/12/25 11:34:48;;;;;;;6.50;0.82;;;;;;;12.44;71.63;99799.56;5069691;28;20044;-66
2023/12/25 11:37:22;;;;;;;5.15;0.77;;;;;;;12.42;71.80;99803.97;5069763;28;20037;-66
2023/12/25 11:40:06;;;;;;;5.97;0.80;;;;;;;12.61;72.94;99815.78;5069751;28;20041;-64